sensor_id;sensor_type;location;lat;lon;timestamp;P1;durP1;ratioP1;P2;durP2;ratioP2
3667;SDS011;24099;47.102;15.440;2023-12-29T00:02:24;3.83;;;1.90;;
3667;SDS011;24099;47.102;15.440;2023-12-29T00:04:51;5.22;;;1.73;;
3667;SDS011;24099;47.102;15.440;2023-12-29T00:07:19;5.00;;;1.70;;
3667;SDS011;24099;47.102;15.440;2023-12-29T00:09:46;4.50;;;2.38;;
3667;SDS011;24099;47.102;15.440;2023-12-29T00:12:13;3.03;;;1.85;;
3667;SDS011;24099;47.102;15.440;2023-12-29T00:14:41;2.22;;;1.40;;
3667;SDS011;24099;47.102;15.440;2023-12-29T00:17:10;2.88;;;1.73;;
3667;SDS011;24099;47.102;15.440;2023-12-29T00:19:37;4.85;;;2.30;;
3667;SDS011;24099;47.102;15.440;2023-12-29T00:22:05;2.35;;;1.77;;
3667;SDS011;24099;47.102;15.440;2023-12-29T00:24:32;3.38;;;1.85;;
3667;SDS011;24099;47.102;15.440;2023-12-29T00:27:01;2.90;;;1.40;;
3667;SDS011;24099;47.102;15.440;2023-12-29T00:29:28;2.38;;;1.55;;
3667;SDS011;24099;47.102;15.440;2023-12-29T00:31:58;4.20;;;1.73;;
3667;SDS011;24099;47.102;15.440;2023-12-29T00:34:27;5.18;;;2.05;;
3667;SDS011;24099;47.102;15.440;2023-12-29T00:36:54;4.10;;;1.58;;
3667;SDS011;24099;47.102;15.440;2023-12-29T00:39:22;4.00;;;1.92;;
3667;SDS011;24099;47.102;15.440;2023-12-29T00:41:54;2.97;;;1.60;;
3667;SDS011;24099;47.102;15.440;2023-12-29T00:44:22;3.88;;;2.03;;
3667;SDS011;24099;47.102;15.440;2023-12-29T00:46:49;4.32;;;1.77;;
3667;SDS011;24099;47.102;15.440;2023-12-29T00:49:17;3.95;;;1.75;;
3667;SDS011;24099;47.102;15.440;2023-12-29T00:51:46;4.90;;;1.90;;
3667;SDS011;24099;47.102;15.440;2023-12-29T00:54:14;4.18;;;1.25;;
3667;SDS011;24099;47.102;15.440;2023-12-29T00:56:41;2.33;;;1.55;;
3667;SDS011;24099;47.102;15.440;2023-12-29T00:59:09;3.10;;;1.55;;
3667;SDS011;24099;47.102;15.440;2023-12-29T01:01:36;3.05;;;1.35;;
3667;SDS011;24099;47.102;15.440;2023-12-29T01:04:04;1.65;;;1.33;;
3667;SDS011;24099;47.102;15.440;2023-12-29T01:06:32;3.97;;;2.22;;
3667;SDS011;24099;47.102;15.440;2023-12-29T01:09:01;2.05;;;1.27;;
3667;SDS011;24099;47.102;15.440;2023-12-29T01:11:28;3.47;;;1.85;;
3667;SDS011;24099;47.102;15.440;2023-12-29T01:13:56;1.85;;;1.30;;
3667;SDS011;24099;47.102;15.440;2023-12-29T01:16:23;2.28;;;1.55;;
3667;SDS011;24099;47.102;15.440;2023-12-29T01:18:50;3.47;;;1.75;;
3667;SDS011;24099;47.102;15.440;2023-12-29T01:21:17;2.90;;;1.35;;
3667;SDS011;24099;47.102;15.440;2023-12-29T01:23:45;1.75;;;1.48;;
3667;SDS011;24099;47.102;15.440;2023-12-29T01:26:13;3.15;;;1.63;;
3667;SDS011;24099;47.102;15.440;2023-12-29T01:28:41;2.30;;;1.65;;
3667;SDS011;24099;47.102;15.440;2023-12-29T01:31:08;3.65;;;1.90;;
3667;SDS011;24099;47.102;15.440;2023-12-29T01:33:36;1.92;;;1.35;;
3667;SDS011;24099;47.102;15.440;2023-12-29T01:36:04;1.52;;;1.40;;
3667;SDS011;24099;47.102;15.440;2023-12-29T01:38:31;2.10;;;1.23;;
3667;SDS011;24099;47.102;15.440;2023-12-29T01:41:00;4.07;;;1.50;;
3667;SDS011;24099;47.102;15.440;2023-12-29T01:43:28;2.05;;;1.55;;
3667;SDS011;24099;47.102;15.440;2023-12-29T01:45:57;5.45;;;1.65;;
3667;SDS011;24099;47.102;15.440;2023-12-29T01:48:24;2.05;;;1.38;;
3667;SDS011;24099;47.102;15.440;2023-12-29T01:50:52;2.63;;;1.35;;
3667;SDS011;24099;47.102;15.440;2023-12-29T01:53:21;2.67;;;1.80;;
3667;SDS011;24099;47.102;15.440;2023-12-29T01:55:48;2.78;;;1.83;;
3667;SDS011;24099;47.102;15.440;2023-12-29T01:58:16;4.07;;;1.63;;
3667;SDS011;24099;47.102;15.440;2023-12-29T02:00:45;2.45;;;1.17;;
3667;SDS011;24099;47.102;15.440;2023-12-29T02:03:12;3.05;;;1.60;;
3667;SDS011;24099;47.102;15.440;2023-12-29T02:05:40;4.50;;;1.67;;
3667;SDS011;24099;47.102;15.440;2023-12-29T02:08:08;3.15;;;1.75;;
3667;SDS011;24099;47.102;15.440;2023-12-29T02:10:37;2.28;;;1.40;;
3667;SDS011;24099;47.102;15.440;2023-12-29T02:13:04;1.70;;;1.40;;
3667;SDS011;24099;47.102;15.440;2023-12-29T02:15:31;1.63;;;1.13;;
3667;SDS011;24099;47.102;15.440;2023-12-29T02:18:01;2.15;;;1.23;;
3667;SDS011;24099;47.102;15.440;2023-12-29T02:20:29;1.75;;;1.23;;
3667;SDS011;24099;47.102;15.440;2023-12-29T02:22:56;2.15;;;1.33;;
3667;SDS011;24099;47.102;15.440;2023-12-29T02:25:25;5.85;;;1.77;;
3667;SDS011;24099;47.102;15.440;2023-12-29T02:27:55;4.00;;;1.63;;
3667;SDS011;24099;47.102;15.440;2023-12-29T02:30:25;2.40;;;1.52;;
3667;SDS011;24099;47.102;15.440;2023-12-29T02:32:55;3.90;;;1.67;;
3667;SDS011;24099;47.102;15.440;2023-12-29T02:35:23;2.88;;;1.77;;
3667;SDS011;24099;47.102;15.440;2023-12-29T02:37:52;3.08;;;1.73;;
3667;SDS011;24099;47.102;15.440;2023-12-29T02:40:20;3.45;;;1.55;;
3667;SDS011;24099;47.102;15.440;2023-12-29T02:42:49;2.10;;;1.55;;
3667;SDS011;24099;47.102;15.440;2023-12-29T02:45:17;3.22;;;1.35;;
3667;SDS011;24099;47.102;15.440;2023-12-29T02:47:44;4.40;;;1.75;;
3667;SDS011;24099;47.102;15.440;2023-12-29T02:50:12;2.83;;;1.20;;
3667;SDS011;24099;47.102;15.440;2023-12-29T02:52:39;2.10;;;1.38;;
3667;SDS011;24099;47.102;15.440;2023-12-29T02:55:07;3.10;;;1.90;;
3667;SDS011;24099;47.102;15.440;2023-12-29T02:57:34;3.45;;;1.50;;
3667;SDS011;24099;47.102;15.440;2023-12-29T03:00:04;4.95;;;1.38;;
3667;SDS011;24099;47.102;15.440;2023-12-29T03:02:31;2.28;;;1.70;;
3667;SDS011;24099;47.102;15.440;2023-12-29T03:04:59;4.82;;;1.60;;
3667;SDS011;24099;47.102;15.440;2023-12-29T03:07:26;3.72;;;1.35;;
3667;SDS011;24099;47.102;15.440;2023-12-29T03:09:54;2.08;;;1.55;;
3667;SDS011;24099;47.102;15.440;2023-12-29T03:12:21;2.50;;;1.60;;
3667;SDS011;24099;47.102;15.440;2023-12-29T03:14:48;5.28;;;1.80;;
3667;SDS011;24099;47.102;15.440;2023-12-29T03:17:17;2.88;;;1.45;;
3667;SDS011;24099;47.102;15.440;2023-12-29T03:19:45;2.45;;;0.95;;
3667;SDS011;24099;47.102;15.440;2023-12-29T03:22:12;2.50;;;1.23;;
3667;SDS011;24099;47.102;15.440;2023-12-29T03:24:40;8.25;;;1.70;;
3667;SDS011;24099;47.102;15.440;2023-12-29T03:27:07;2.90;;;1.70;;
3667;SDS011;24099;47.102;15.440;2023-12-29T03:29:34;3.00;;;1.95;;
3667;SDS011;24099;47.102;15.440;2023-12-29T03:32:02;2.60;;;1.45;;
3667;SDS011;24099;47.102;15.440;2023-12-29T03:34:31;1.50;;;1.40;;
3667;SDS011;24099;47.102;15.440;2023-12-29T03:36:58;2.55;;;1.50;;
3667;SDS011;24099;47.102;15.440;2023-12-29T03:39:25;1.27;;;1.15;;
3667;SDS011;24099;47.102;15.440;2023-12-29T03:41:52;2.78;;;1.48;;
3667;SDS011;24099;47.102;15.440;2023-12-29T03:44:22;2.92;;;1.40;;
3667;SDS011;24099;47.102;15.440;2023-12-29T03:46:49;3.47;;;1.92;;
3667;SDS011;24099;47.102;15.440;2023-12-29T03:49:17;1.77;;;1.10;;
3667;SDS011;24099;47.102;15.440;2023-12-29T03:51:46;2.17;;;1.58;;
3667;SDS011;24099;47.102;15.440;2023-12-29T03:54:14;2.08;;;1.10;;
3667;SDS011;24099;47.102;15.440;2023-12-29T03:56:43;2.50;;;1.35;;
3667;SDS011;24099;47.102;15.440;2023-12-29T03:59:10;2.55;;;1.25;;
3667;SDS011;24099;47.102;15.440;2023-12-29T04:01:39;5.05;;;1.92;;
3667;SDS011;24099;47.102;15.440;2023-12-29T04:04:06;1.30;;;1.20;;
3667;SDS011;24099;47.102;15.440;2023-12-29T04:06:33;3.13;;;1.42;;
3667;SDS011;24099;47.102;15.440;2023-12-29T04:09:02;3.70;;;1.67;;
3667;SDS011;24099;47.102;15.440;2023-12-29T04:11:30;3.67;;;1.50;;
3667;SDS011;24099;47.102;15.440;2023-12-29T04:13:56;3.05;;;1.92;;
3667;SDS011;24099;47.102;15.440;2023-12-29T04:16:24;3.67;;;1.63;;
3667;SDS011;24099;47.102;15.440;2023-12-29T04:18:51;2.22;;;1.42;;
3667;SDS011;24099;47.102;15.440;2023-12-29T04:21:18;1.33;;;1.20;;
3667;SDS011;24099;47.102;15.440;2023-12-29T04:23:46;2.38;;;1.38;;
3667;SDS011;24099;47.102;15.440;2023-12-29T04:26:14;2.63;;;1.48;;
3667;SDS011;24099;47.102;15.440;2023-12-29T04:28:43;3.17;;;1.38;;
3667;SDS011;24099;47.102;15.440;2023-12-29T04:31:11;1.92;;;1.17;;
3667;SDS011;24099;47.102;15.440;2023-12-29T04:33:38;4.57;;;1.65;;
3667;SDS011;24099;47.102;15.440;2023-12-29T04:36:05;3.17;;;1.85;;
3667;SDS011;24099;47.102;15.440;2023-12-29T04:38:33;2.80;;;1.42;;
3667;SDS011;24099;47.102;15.440;2023-12-29T04:41:00;1.55;;;1.20;;
3667;SDS011;24099;47.102;15.440;2023-12-29T04:43:29;3.50;;;1.55;;
3667;SDS011;24099;47.102;15.440;2023-12-29T04:45:56;2.67;;;1.27;;
3667;SDS011;24099;47.102;15.440;2023-12-29T04:48:23;1.30;;;1.20;;
3667;SDS011;24099;47.102;15.440;2023-12-29T04:50:51;2.22;;;1.40;;
3667;SDS011;24099;47.102;15.440;2023-12-29T04:53:18;3.05;;;2.00;;
3667;SDS011;24099;47.102;15.440;2023-12-29T04:55:45;2.40;;;1.38;;
3667;SDS011;24099;47.102;15.440;2023-12-29T04:58:13;1.52;;;1.20;;
3667;SDS011;24099;47.102;15.440;2023-12-29T05:00:41;1.38;;;1.13;;
3667;SDS011;24099;47.102;15.440;2023-12-29T05:03:09;2.30;;;1.15;;
3667;SDS011;24099;47.102;15.440;2023-12-29T05:05:36;6.75;;;1.77;;
3667;SDS011;24099;47.102;15.440;2023-12-29T05:08:04;2.67;;;1.52;;
3667;SDS011;24099;47.102;15.440;2023-12-29T05:10:31;4.45;;;1.77;;
3667;SDS011;24099;47.102;15.440;2023-12-29T05:12:59;2.22;;;1.20;;
3667;SDS011;24099;47.102;15.440;2023-12-29T05:15:27;2.67;;;1.58;;
3667;SDS011;24099;47.102;15.440;2023-12-29T05:17:55;4.57;;;1.80;;
3667;SDS011;24099;47.102;15.440;2023-12-29T05:20:23;1.52;;;1.20;;
3667;SDS011;24099;47.102;15.440;2023-12-29T05:22:50;3.00;;;1.75;;
3667;SDS011;24099;47.102;15.440;2023-12-29T05:25:17;3.25;;;1.60;;
3667;SDS011;24099;47.102;15.440;2023-12-29T05:27:47;2.42;;;1.52;;
3667;SDS011;24099;47.102;15.440;2023-12-29T05:30:14;1.70;;;1.30;;
3667;SDS011;24099;47.102;15.440;2023-12-29T05:32:42;5.78;;;1.65;;
3667;SDS011;24099;47.102;15.440;2023-12-29T05:35:10;4.15;;;1.48;;
3667;SDS011;24099;47.102;15.440;2023-12-29T05:37:38;2.60;;;1.23;;
3667;SDS011;24099;47.102;15.440;2023-12-29T05:40:05;2.10;;;1.55;;
3667;SDS011;24099;47.102;15.440;2023-12-29T05:42:33;2.28;;;1.10;;
3667;SDS011;24099;47.102;15.440;2023-12-29T05:45:00;1.95;;;1.30;;
3667;SDS011;24099;47.102;15.440;2023-12-29T05:47:28;5.75;;;0.90;;
3667;SDS011;24099;47.102;15.440;2023-12-29T05:49:55;2.05;;;1.45;;
3667;SDS011;24099;47.102;15.440;2023-12-29T05:52:24;2.15;;;1.50;;
3667;SDS011;24099;47.102;15.440;2023-12-29T05:54:51;2.35;;;1.48;;
3667;SDS011;24099;47.102;15.440;2023-12-29T05:57:19;1.33;;;1.10;;
3667;SDS011;24099;47.102;15.440;2023-12-29T05:59:46;2.35;;;1.40;;
3667;SDS011;24099;47.102;15.440;2023-12-29T06:02:13;3.40;;;1.50;;
3667;SDS011;24099;47.102;15.440;2023-12-29T06:04:41;2.65;;;1.20;;
3667;SDS011;24099;47.102;15.440;2023-12-29T06:07:08;3.03;;;0.82;;
3667;SDS011;24099;47.102;15.440;2023-12-29T06:09:37;2.90;;;1.55;;
3667;SDS011;24099;47.102;15.440;2023-12-29T06:12:04;2.80;;;1.20;;
3667;SDS011;24099;47.102;15.440;2023-12-29T06:14:32;5.13;;;1.45;;
3667;SDS011;24099;47.102;15.440;2023-12-29T06:16:59;2.20;;;1.73;;
3667;SDS011;24099;47.102;15.440;2023-12-29T06:19:27;1.45;;;1.30;;
3667;SDS011;24099;47.102;15.440;2023-12-29T06:21:54;2.45;;;1.27;;
3667;SDS011;24099;47.102;15.440;2023-12-29T06:24:21;4.68;;;1.17;;
3667;SDS011;24099;47.102;15.440;2023-12-29T06:26:50;7.15;;;1.90;;
3667;SDS011;24099;47.102;15.440;2023-12-29T06:29:18;1.38;;;1.05;;
3667;SDS011;24099;47.102;15.440;2023-12-29T06:31:46;3.47;;;1.63;;
3667;SDS011;24099;47.102;15.440;2023-12-29T06:34:13;3.13;;;1.48;;
3667;SDS011;24099;47.102;15.440;2023-12-29T06:36:40;2.08;;;1.60;;
3667;SDS011;24099;47.102;15.440;2023-12-29T06:39:08;4.35;;;1.52;;
3667;SDS011;24099;47.102;15.440;2023-12-29T06:41:35;1.98;;;1.10;;
3667;SDS011;24099;47.102;15.440;2023-12-29T06:44:04;2.10;;;1.38;;
3667;SDS011;24099;47.102;15.440;2023-12-29T06:46:31;1.73;;;1.50;;
3667;SDS011;24099;47.102;15.440;2023-12-29T06:48:59;1.00;;;0.95;;
3667;SDS011;24099;47.102;15.440;2023-12-29T06:51:26;1.67;;;1.40;;
3667;SDS011;24099;47.102;15.440;2023-12-29T06:53:54;0.98;;;0.93;;
3667;SDS011;24099;47.102;15.440;2023-12-29T06:56:22;4.68;;;1.45;;
3667;SDS011;24099;47.102;15.440;2023-12-29T06:58:49;4.82;;;1.73;;
3667;SDS011;24099;47.102;15.440;2023-12-29T07:01:18;1.13;;;1.02;;
3667;SDS011;24099;47.102;15.440;2023-12-29T07:03:45;2.72;;;1.42;;
3667;SDS011;24099;47.102;15.440;2023-12-29T07:06:13;2.63;;;1.63;;
3667;SDS011;24099;47.102;15.440;2023-12-29T07:08:40;1.92;;;1.63;;
3667;SDS011;24099;47.102;15.440;2023-12-29T07:11:09;3.38;;;1.27;;
3667;SDS011;24099;47.102;15.440;2023-12-29T07:13:37;4.13;;;1.92;;
3667;SDS011;24099;47.102;15.440;2023-12-29T07:16:05;1.73;;;1.48;;
3667;SDS011;24099;47.102;15.440;2023-12-29T07:18:34;2.15;;;1.25;;
3667;SDS011;24099;47.102;15.440;2023-12-29T07:21:01;2.42;;;1.35;;
3667;SDS011;24099;47.102;15.440;2023-12-29T07:23:29;3.88;;;1.63;;
3667;SDS011;24099;47.102;15.440;2023-12-29T07:25:56;2.00;;;1.15;;
3667;SDS011;24099;47.102;15.440;2023-12-29T07:28:24;4.68;;;1.55;;
3667;SDS011;24099;47.102;15.440;2023-12-29T07:30:51;2.85;;;1.23;;
3667;SDS011;24099;47.102;15.440;2023-12-29T07:33:18;1.38;;;1.27;;
3667;SDS011;24099;47.102;15.440;2023-12-29T07:35:47;2.45;;;1.33;;
3667;SDS011;24099;47.102;15.440;2023-12-29T07:38:15;2.78;;;1.25;;
3667;SDS011;24099;47.102;15.440;2023-12-29T07:40:42;1.42;;;1.10;;
3667;SDS011;24099;47.102;15.440;2023-12-29T07:43:10;2.67;;;2.05;;
3667;SDS011;24099;47.102;15.440;2023-12-29T07:45:37;1.92;;;1.35;;
3667;SDS011;24099;47.102;15.440;2023-12-29T07:48:05;1.90;;;1.42;;
3667;SDS011;24099;47.102;15.440;2023-12-29T07:50:33;5.43;;;1.42;;
3667;SDS011;24099;47.102;15.440;2023-12-29T07:53:02;1.92;;;1.40;;
3667;SDS011;24099;47.102;15.440;2023-12-29T07:55:31;3.35;;;1.73;;
3667;SDS011;24099;47.102;15.440;2023-12-29T07:57:58;2.75;;;1.25;;
3667;SDS011;24099;47.102;15.440;2023-12-29T08:00:26;1.88;;;1.15;;
3667;SDS011;24099;47.102;15.440;2023-12-29T08:02:53;4.75;;;1.70;;
3667;SDS011;24099;47.102;15.440;2023-12-29T08:05:20;1.50;;;1.40;;
3667;SDS011;24099;47.102;15.440;2023-12-29T08:07:48;2.00;;;1.40;;
3667;SDS011;24099;47.102;15.440;2023-12-29T08:10:16;2.22;;;1.23;;
3667;SDS011;24099;47.102;15.440;2023-12-29T08:12:44;1.55;;;1.25;;
3667;SDS011;24099;47.102;15.440;2023-12-29T08:15:11;1.60;;;1.38;;
3667;SDS011;24099;47.102;15.440;2023-12-29T08:17:39;2.60;;;1.55;;
3667;SDS011;24099;47.102;15.440;2023-12-29T08:20:06;6.53;;;1.55;;
3667;SDS011;24099;47.102;15.440;2023-12-29T08:22:34;2.05;;;1.20;;
3667;SDS011;24099;47.102;15.440;2023-12-29T08:25:02;1.40;;;1.10;;
3667;SDS011;24099;47.102;15.440;2023-12-29T08:27:31;2.90;;;1.60;;
3667;SDS011;24099;47.102;15.440;2023-12-29T08:29:58;2.95;;;1.13;;
3667;SDS011;24099;47.102;15.440;2023-12-29T08:32:26;2.08;;;1.35;;
3667;SDS011;24099;47.102;15.440;2023-12-29T08:34:53;2.90;;;1.50;;
3667;SDS011;24099;47.102;15.440;2023-12-29T08:37:21;3.88;;;1.83;;
3667;SDS011;24099;47.102;15.440;2023-12-29T08:39:48;5.55;;;1.40;;
3667;SDS011;24099;47.102;15.440;2023-12-29T08:42:16;3.30;;;1.70;;
3667;SDS011;24099;47.102;15.440;2023-12-29T08:44:44;2.63;;;1.77;;
3667;SDS011;24099;47.102;15.440;2023-12-29T08:47:12;2.10;;;1.45;;
3667;SDS011;24099;47.102;15.440;2023-12-29T08:49:39;5.72;;;2.08;;
3667;SDS011;24099;47.102;15.440;2023-12-29T08:52:07;3.80;;;2.25;;
3667;SDS011;24099;47.102;15.440;2023-12-29T08:54:35;4.78;;;1.85;;
3667;SDS011;24099;47.102;15.440;2023-12-29T08:57:02;4.35;;;1.58;;
3667;SDS011;24099;47.102;15.440;2023-12-29T08:59:29;2.35;;;1.52;;
3667;SDS011;24099;47.102;15.440;2023-12-29T09:01:58;2.80;;;1.48;;
3667;SDS011;24099;47.102;15.440;2023-12-29T09:04:26;4.22;;;2.28;;
3667;SDS011;24099;47.102;15.440;2023-12-29T09:06:53;4.07;;;2.30;;
3667;SDS011;24099;47.102;15.440;2023-12-29T09:09:20;6.57;;;2.50;;
3667;SDS011;24099;47.102;15.440;2023-12-29T09:11:48;2.05;;;1.70;;
3667;SDS011;24099;47.102;15.440;2023-12-29T09:14:15;3.95;;;2.17;;
3667;SDS011;24099;47.102;15.440;2023-12-29T09:16:43;4.57;;;2.55;;
3667;SDS011;24099;47.102;15.440;2023-12-29T09:19:13;3.90;;;2.13;;
3667;SDS011;24099;47.102;15.440;2023-12-29T09:21:40;3.75;;;2.05;;
3667;SDS011;24099;47.102;15.440;2023-12-29T09:24:08;8.25;;;2.85;;
3667;SDS011;24099;47.102;15.440;2023-12-29T09:26:35;3.70;;;2.38;;
3667;SDS011;24099;47.102;15.440;2023-12-29T09:29:02;4.00;;;2.33;;
3667;SDS011;24099;47.102;15.440;2023-12-29T09:31:29;2.33;;;1.80;;
3667;SDS011;24099;47.102;15.440;2023-12-29T09:33:57;3.30;;;2.03;;
3667;SDS011;24099;47.102;15.440;2023-12-29T09:36:26;4.85;;;1.98;;
3667;SDS011;24099;47.102;15.440;2023-12-29T09:38:54;3.75;;;2.60;;
3667;SDS011;24099;47.102;15.440;2023-12-29T09:41:23;5.90;;;2.50;;
3667;SDS011;24099;47.102;15.440;2023-12-29T09:43:51;3.75;;;2.20;;
3667;SDS011;24099;47.102;15.440;2023-12-29T09:46:19;12.75;;;5.28;;
3667;SDS011;24099;47.102;15.440;2023-12-29T09:48:48;7.43;;;2.90;;
3667;SDS011;24099;47.102;15.440;2023-12-29T09:51:18;12.63;;;5.55;;
3667;SDS011;24099;47.102;15.440;2023-12-29T09:53:49;16.95;;;6.05;;
3667;SDS011;24099;47.102;15.440;2023-12-29T09:56:17;11.15;;;4.32;;
3667;SDS011;24099;47.102;15.440;2023-12-29T09:58:45;6.93;;;3.35;;
3667;SDS011;24099;47.102;15.440;2023-12-29T10:01:13;4.50;;;1.95;;
3667;SDS011;24099;47.102;15.440;2023-12-29T10:03:41;4.43;;;1.70;;
3667;SDS011;24099;47.102;15.440;2023-12-29T10:06:08;2.28;;;1.75;;
3667;SDS011;24099;47.102;15.440;2023-12-29T10:08:37;2.60;;;1.60;;
3667;SDS011;24099;47.102;15.440;2023-12-29T10:11:06;4.13;;;1.90;;
3667;SDS011;24099;47.102;15.440;2023-12-29T10:13:35;4.00;;;2.00;;
3667;SDS011;24099;47.102;15.440;2023-12-29T10:16:04;3.50;;;1.75;;
3667;SDS011;24099;47.102;15.440;2023-12-29T10:18:37;4.97;;;2.20;;
3667;SDS011;24099;47.102;15.440;2023-12-29T10:21:07;6.07;;;2.40;;
3667;SDS011;24099;47.102;15.440;2023-12-29T10:23:36;3.08;;;1.77;;
3667;SDS011;24099;47.102;15.440;2023-12-29T10:26:04;2.92;;;2.00;;
3667;SDS011;24099;47.102;15.440;2023-12-29T10:28:33;2.83;;;1.70;;
3667;SDS011;24099;47.102;15.440;2023-12-29T10:31:01;2.58;;;1.70;;
3667;SDS011;24099;47.102;15.440;2023-12-29T10:33:28;2.35;;;1.45;;
3667;SDS011;24099;47.102;15.440;2023-12-29T10:35:57;1.88;;;1.38;;
3667;SDS011;24099;47.102;15.440;2023-12-29T10:38:27;2.88;;;1.27;;
3667;SDS011;24099;47.102;15.440;2023-12-29T10:40:54;2.33;;;1.10;;
3667;SDS011;24099;47.102;15.440;2023-12-29T10:43:22;3.47;;;1.10;;
3667;SDS011;24099;47.102;15.440;2023-12-29T10:45:50;2.72;;;1.30;;
3667;SDS011;24099;47.102;15.440;2023-12-29T10:48:32;3.35;;;1.58;;
3667;SDS011;24099;47.102;15.440;2023-12-29T10:50:59;1.58;;;1.25;;
3667;SDS011;24099;47.102;15.440;2023-12-29T10:53:29;1.65;;;1.10;;
3667;SDS011;24099;47.102;15.440;2023-12-29T10:55:56;1.33;;;1.02;;
3667;SDS011;24099;47.102;15.440;2023-12-29T10:58:24;3.35;;;1.60;;
3667;SDS011;24099;47.102;15.440;2023-12-29T11:00:55;5.50;;;1.30;;
3667;SDS011;24099;47.102;15.440;2023-12-29T11:03:23;1.77;;;1.08;;
3667;SDS011;24099;47.102;15.440;2023-12-29T11:05:50;1.98;;;1.13;;
3667;SDS011;24099;47.102;15.440;2023-12-29T11:08:18;3.65;;;1.38;;
3667;SDS011;24099;47.102;15.440;2023-12-29T11:10:47;1.15;;;1.05;;
3667;SDS011;24099;47.102;15.440;2023-12-29T11:13:15;3.00;;;1.40;;
3667;SDS011;24099;47.102;15.440;2023-12-29T11:15:42;2.20;;;1.02;;
3667;SDS011;24099;47.102;15.440;2023-12-29T11:18:12;2.72;;;1.25;;
3667;SDS011;24099;47.102;15.440;2023-12-29T11:20:40;1.88;;;1.13;;
3667;SDS011;24099;47.102;15.440;2023-12-29T11:23:08;1.77;;;1.20;;
3667;SDS011;24099;47.102;15.440;2023-12-29T11:25:36;2.00;;;1.00;;
3667;SDS011;24099;47.102;15.440;2023-12-29T11:28:04;2.38;;;1.48;;
3667;SDS011;24099;47.102;15.440;2023-12-29T11:30:33;1.15;;;1.00;;
3667;SDS011;24099;47.102;15.440;2023-12-29T11:33:02;1.55;;;1.10;;
3667;SDS011;24099;47.102;15.440;2023-12-29T11:35:32;5.47;;;1.50;;
3667;SDS011;24099;47.102;15.440;2023-12-29T11:38:08;1.80;;;1.10;;
3667;SDS011;24099;47.102;15.440;2023-12-29T11:40:41;1.50;;;1.00;;
3667;SDS011;24099;47.102;15.440;2023-12-29T11:43:09;2.97;;;1.40;;
3667;SDS011;24099;47.102;15.440;2023-12-29T11:45:40;2.67;;;1.10;;
3667;SDS011;24099;47.102;15.440;2023-12-29T11:48:07;2.78;;;1.40;;
3667;SDS011;24099;47.102;15.440;2023-12-29T11:50:38;1.90;;;1.20;;
3667;SDS011;24099;47.102;15.440;2023-12-29T11:53:06;4.38;;;0.98;;
3667;SDS011;24099;47.102;15.440;2023-12-29T11:55:34;4.05;;;0.80;;
3667;SDS011;24099;47.102;15.440;2023-12-29T11:58:01;1.40;;;0.77;;
3667;SDS011;24099;47.102;15.440;2023-12-29T12:00:42;3.63;;;1.25;;
3667;SDS011;24099;47.102;15.440;2023-12-29T12:03:16;1.83;;;1.25;;
3667;SDS011;24099;47.102;15.440;2023-12-29T12:05:46;4.80;;;1.00;;
3667;SDS011;24099;47.102;15.440;2023-12-29T12:08:29;9.18;;;1.23;;
3667;SDS011;24099;47.102;15.440;2023-12-29T12:10:57;1.48;;;0.80;;
3667;SDS011;24099;47.102;15.440;2023-12-29T12:13:43;4.53;;;1.42;;
3667;SDS011;24099;47.102;15.440;2023-12-29T12:18:53;1.30;;;0.88;;
3667;SDS011;24099;47.102;15.440;2023-12-29T12:21:22;2.60;;;1.10;;
3667;SDS011;24099;47.102;15.440;2023-12-29T12:23:50;8.95;;;1.50;;
3667;SDS011;24099;47.102;15.440;2023-12-29T12:26:18;2.67;;;1.40;;
3667;SDS011;24099;47.102;15.440;2023-12-29T12:28:46;10.52;;;1.50;;
3667;SDS011;24099;47.102;15.440;2023-12-29T12:31:14;1.70;;;1.13;;
3667;SDS011;24099;47.102;15.440;2023-12-29T12:33:52;3.58;;;1.23;;
3667;SDS011;24099;47.102;15.440;2023-12-29T12:36:21;1.40;;;1.13;;
3667;SDS011;24099;47.102;15.440;2023-12-29T12:38:50;3.60;;;1.60;;
3667;SDS011;24099;47.102;15.440;2023-12-29T12:41:18;2.67;;;1.52;;
3667;SDS011;24099;47.102;15.440;2023-12-29T12:43:48;5.75;;;1.60;;
3667;SDS011;24099;47.102;15.440;2023-12-29T12:46:17;4.53;;;1.88;;
3667;SDS011;24099;47.102;15.440;2023-12-29T12:48:45;3.42;;;1.75;;
3667;SDS011;24099;47.102;15.440;2023-12-29T12:51:13;2.38;;;1.67;;
3667;SDS011;24099;47.102;15.440;2023-12-29T12:53:42;6.45;;;2.00;;
3667;SDS011;24099;47.102;15.440;2023-12-29T12:56:10;12.38;;;2.30;;
3667;SDS011;24099;47.102;15.440;2023-12-29T12:58:38;4.00;;;1.90;;
3667;SDS011;24099;47.102;15.440;2023-12-29T13:01:05;5.43;;;2.13;;
3667;SDS011;24099;47.102;15.440;2023-12-29T13:03:33;4.32;;;2.50;;
3667;SDS011;24099;47.102;15.440;2023-12-29T13:06:00;4.43;;;2.80;;
3667;SDS011;24099;47.102;15.440;2023-12-29T13:08:29;5.70;;;2.35;;
3667;SDS011;24099;47.102;15.440;2023-12-29T13:10:58;5.80;;;2.83;;
3667;SDS011;24099;47.102;15.440;2023-12-29T13:13:34;4.03;;;2.22;;
3667;SDS011;24099;47.102;15.440;2023-12-29T13:16:02;3.40;;;2.35;;
3667;SDS011;24099;47.102;15.440;2023-12-29T13:18:29;6.25;;;2.55;;
3667;SDS011;24099;47.102;15.440;2023-12-29T13:20:57;4.60;;;2.10;;
3667;SDS011;24099;47.102;15.440;2023-12-29T13:23:25;3.75;;;2.22;;
3667;SDS011;24099;47.102;15.440;2023-12-29T13:25:54;15.48;;;3.00;;
3667;SDS011;24099;47.102;15.440;2023-12-29T13:28:23;4.32;;;2.40;;
3667;SDS011;24099;47.102;15.440;2023-12-29T13:30:50;5.05;;;1.88;;
3667;SDS011;24099;47.102;15.440;2023-12-29T13:33:18;6.82;;;2.25;;
3667;SDS011;24099;47.102;15.440;2023-12-29T13:35:49;5.40;;;1.83;;
3667;SDS011;24099;47.102;15.440;2023-12-29T13:38:20;7.43;;;2.25;;
3667;SDS011;24099;47.102;15.440;2023-12-29T13:40:53;3.38;;;1.92;;
3667;SDS011;24099;47.102;15.440;2023-12-29T13:43:22;3.72;;;2.08;;
3667;SDS011;24099;47.102;15.440;2023-12-29T13:45:50;3.00;;;1.90;;
3667;SDS011;24099;47.102;15.440;2023-12-29T13:48:18;3.10;;;1.92;;
3667;SDS011;24099;47.102;15.440;2023-12-29T13:50:46;5.00;;;2.20;;
3667;SDS011;24099;47.102;15.440;2023-12-29T13:53:17;2.13;;;1.70;;
3667;SDS011;24099;47.102;15.440;2023-12-29T13:55:45;2.45;;;1.55;;
3667;SDS011;24099;47.102;15.440;2023-12-29T13:58:12;4.15;;;2.17;;
3667;SDS011;24099;47.102;15.440;2023-12-29T14:00:41;8.60;;;2.58;;
3667;SDS011;24099;47.102;15.440;2023-12-29T14:03:10;2.35;;;1.70;;
3667;SDS011;24099;47.102;15.440;2023-12-29T14:05:46;4.85;;;1.90;;
3667;SDS011;24099;47.102;15.440;2023-12-29T14:08:16;3.75;;;2.22;;
3667;SDS011;24099;47.102;15.440;2023-12-29T14:10:45;9.90;;;2.08;;
3667;SDS011;24099;47.102;15.440;2023-12-29T14:13:13;3.60;;;1.80;;
3667;SDS011;24099;47.102;15.440;2023-12-29T14:15:43;2.90;;;1.75;;
3667;SDS011;24099;47.102;15.440;2023-12-29T14:18:18;1.77;;;1.45;;
3667;SDS011;24099;47.102;15.440;2023-12-29T14:20:49;1.92;;;1.70;;
3667;SDS011;24099;47.102;15.440;2023-12-29T14:23:17;3.60;;;2.10;;
3667;SDS011;24099;47.102;15.440;2023-12-29T14:25:45;4.65;;;1.92;;
3667;SDS011;24099;47.102;15.440;2023-12-29T14:28:16;6.18;;;1.92;;
3667;SDS011;24099;47.102;15.440;2023-12-29T14:30:45;5.30;;;1.90;;
3667;SDS011;24099;47.102;15.440;2023-12-29T14:33:12;1.65;;;1.40;;
3667;SDS011;24099;47.102;15.440;2023-12-29T14:35:40;2.03;;;1.30;;
3667;SDS011;24099;47.102;15.440;2023-12-29T14:38:07;8.45;;;1.73;;
3667;SDS011;24099;47.102;15.440;2023-12-29T14:40:35;3.97;;;1.73;;
3667;SDS011;24099;47.102;15.440;2023-12-29T14:43:03;3.70;;;1.70;;
3667;SDS011;24099;47.102;15.440;2023-12-29T14:45:31;2.78;;;1.52;;
3667;SDS011;24099;47.102;15.440;2023-12-29T14:47:59;4.18;;;1.88;;
3667;SDS011;24099;47.102;15.440;2023-12-29T14:50:27;1.95;;;1.40;;
3667;SDS011;24099;47.102;15.440;2023-12-29T14:52:54;3.70;;;1.60;;
3667;SDS011;24099;47.102;15.440;2023-12-29T14:55:21;2.85;;;1.55;;
3667;SDS011;24099;47.102;15.440;2023-12-29T14:57:49;2.63;;;1.42;;